createdAt,value
2023-05-02T00:00:52.827Z,99.90
2023-05-02T00:03:46.878Z,99.90
2023-05-02T00:06:34.185Z,99.90
2023-05-02T00:09:28.886Z,99.90
2023-05-02T00:12:15.946Z,99.90
2023-05-02T00:15:09.850Z,99.90
2023-05-02T00:17:56.966Z,99.90
2023-05-02T00:20:50.819Z,99.90
2023-05-02T00:23:37.898Z,99.90
2023-05-02T00:26:31.834Z,99.90
2023-05-02T00:29:18.907Z,99.90
2023-05-02T00:32:12.852Z,99.90
2023-05-02T00:35:06.836Z,99.90
2023-05-02T00:37:53.928Z,99.90
2023-05-02T00:40:55.912Z,99.90
2023-05-02T00:43:43.013Z,99.90
2023-05-02T00:46:36.908Z,99.90
2023-05-02T00:49:24.812Z,99.90
2023-05-02T00:52:18.848Z,99.90
2023-05-02T00:55:06.435Z,99.90
2023-05-02T00:57:59.921Z,99.90
2023-05-02T01:01:05.938Z,99.90
2023-05-02T01:04:26.918Z,99.90
2023-05-02T01:07:22.919Z,99.90
2023-05-02T01:10:29.885Z,99.90
2023-05-02T01:13:39.885Z,99.90
2023-05-02T01:16:28.722Z,99.90
2023-05-02T01:19:55.986Z,99.90
2023-05-02T01:22:50.899Z,99.90
2023-05-02T01:26:13.770Z,99.90
2023-05-02T01:29:07.936Z,99.90
2023-05-02T01:31:56.927Z,99.90
2023-05-02T01:34:53.923Z,99.90
2023-05-02T01:37:41.892Z,99.90
2023-05-02T01:40:35.945Z,99.90
2023-05-02T01:43:24.522Z,99.90
2023-05-02T01:46:20.014Z,99.90
2023-05-02T01:49:15.972Z,99.90
2023-05-02T01:52:08.469Z,99.90
2023-05-02T01:55:04.977Z,99.90
2023-05-02T01:57:54.417Z,99.90
2023-05-02T02:00:52.030Z,99.90
2023-05-02T02:03:45.995Z,99.90
2023-05-02T02:06:33.756Z,99.90
2023-05-02T02:09:28.003Z,99.90
2023-05-02T02:12:28.205Z,99.90
2023-05-02T02:15:35.144Z,99.90
2023-05-02T02:18:26.389Z,99.90
2023-05-02T02:21:25.005Z,99.90
2023-05-02T02:24:20.393Z,99.90
2023-05-02T02:27:07.430Z,99.90
2023-05-02T02:30:01.263Z,99.90
2023-05-02T02:32:48.556Z,99.90
2023-05-02T02:35:49.044Z,99.90
2023-05-02T02:38:44.767Z,99.90
2023-05-02T02:42:05.046Z,99.90
2023-05-02T02:45:09.843Z,99.90
2023-05-02T02:48:28.098Z,99.90
2023-05-02T02:51:39.052Z,99.90
2023-05-02T02:54:35.555Z,99.90
2023-05-02T02:57:39.080Z,99.90
2023-05-02T03:00:28.362Z,99.90
2023-05-02T03:03:24.178Z,99.90
2023-05-02T03:06:11.929Z,99.90
2023-05-02T03:09:05.149Z,99.90
2023-05-02T03:11:59.095Z,99.90
2023-05-02T03:14:53.110Z,99.90
2023-05-02T03:17:47.136Z,99.90
2023-05-02T03:20:34.280Z,99.90
2023-05-02T03:23:28.108Z,99.90
2023-05-02T03:26:15.270Z,99.90
2023-05-02T03:29:09.101Z,99.90
2023-05-02T03:32:03.262Z,99.90
2023-05-02T03:34:50.451Z,99.90
2023-05-02T03:37:44.121Z,99.90
2023-05-02T03:40:38.189Z,99.90
2023-05-02T03:43:32.124Z,99.90
2023-05-02T03:46:19.301Z,99.90
2023-05-02T03:49:13.201Z,99.90
2023-05-02T03:52:00.891Z,99.90
2023-05-02T03:54:54.162Z,99.90
2023-05-02T03:57:41.234Z,99.90
2023-05-02T04:00:35.195Z,99.90
2023-05-02T04:03:30.108Z,99.90
2023-05-02T04:06:17.360Z,99.90
2023-05-02T04:09:11.170Z,99.90
2023-05-02T04:11:58.257Z,99.90
2023-05-02T04:14:52.321Z,99.90
2023-05-02T04:17:39.507Z,99.90
2023-05-02T04:20:33.252Z,99.90
2023-05-02T04:23:20.408Z,99.90
2023-05-02T04:26:14.223Z,99.90
2023-05-02T04:29:01.576Z,99.90
2023-05-02T04:31:55.256Z,99.90
2023-05-02T04:34:42.529Z,99.90
2023-05-02T04:37:36.222Z,99.90
2023-05-02T04:40:23.277Z,99.90
2023-05-02T04:43:17.250Z,99.90
2023-05-02T04:46:04.458Z,99.90
2023-05-02T04:48:58.229Z,99.90
2023-05-02T04:51:52.288Z,99.90
2023-05-02T04:54:39.322Z,99.90
2023-05-02T04:57:33.304Z,99.90
2023-05-02T05:00:21.778Z,99.90
2023-05-02T05:03:15.284Z,99.90
2023-05-02T05:06:02.618Z,99.90
2023-05-02T05:08:56.282Z,99.90
2023-05-02T05:11:43.580Z,99.90
2023-05-02T05:14:38.260Z,99.90
2023-05-02T05:17:25.392Z,99.90
2023-05-02T05:20:19.265Z,99.90
2023-05-02T05:23:06.451Z,99.90
2023-05-02T05:26:00.263Z,99.90
2023-05-02T05:28:54.292Z,99.90
2023-05-02T05:31:41.908Z,99.90
2023-05-02T05:34:35.293Z,99.90
2023-05-02T05:37:22.431Z,99.90
2023-05-02T05:40:16.360Z,99.90
2023-05-02T05:43:03.518Z,99.90
2023-05-02T05:46:01.323Z,99.90
2023-05-02T05:48:48.452Z,99.90
2023-05-02T05:51:42.362Z,99.90
2023-05-02T05:54:29.410Z,99.90
2023-05-02T05:57:23.336Z,99.90
2023-05-02T06:00:11.123Z,99.90
2023-05-02T06:03:06.046Z,99.90
2023-05-02T06:06:01.393Z,99.90
2023-05-02T06:08:48.475Z,99.90
2023-05-02T06:11:44.391Z,99.90
2023-05-02T06:14:31.441Z,99.90
2023-05-02T06:17:25.402Z,99.90
2023-05-02T06:20:19.410Z,99.90
2023-05-02T06:23:13.452Z,99.90
2023-05-02T06:26:01.925Z,99.90
2023-05-02T06:28:55.423Z,99.90
2023-05-02T06:32:02.445Z,99.90
2023-05-02T06:34:49.594Z,99.90
2023-05-02T06:37:43.420Z,99.90
2023-05-02T06:40:37.401Z,99.90
2023-05-02T06:43:31.397Z,99.90
2023-05-02T06:46:20.296Z,99.90
2023-05-02T06:49:14.441Z,99.90
2023-05-02T06:52:01.515Z,99.90
2023-05-02T06:54:55.461Z,99.90
2023-05-02T06:57:42.543Z,99.90
2023-05-02T07:00:36.471Z,99.90
2023-05-02T07:03:30.448Z,99.90
2023-05-02T07:06:24.489Z,99.90
2023-05-02T07:09:18.486Z,99.90
2023-05-02T07:12:07.046Z,99.90
2023-05-02T07:15:00.545Z,99.90
2023-05-02T07:17:54.544Z,99.90
2023-05-02T07:20:48.466Z,99.90
2023-05-02T07:23:35.675Z,99.90
2023-05-02T07:26:30.474Z,99.90
2023-05-02T07:29:17.503Z,99.90
2023-05-02T07:32:11.619Z,99.90
2023-05-02T07:34:58.759Z,99.90
2023-05-02T07:37:52.511Z,99.90
2023-05-02T07:40:39.564Z,99.90
2023-05-02T07:43:33.492Z,99.90
2023-05-02T07:46:21.435Z,99.90
2023-05-02T07:49:15.571Z,99.90
2023-05-02T07:52:02.662Z,99.90
2023-05-02T07:54:56.539Z,99.90
2023-05-02T07:57:50.593Z,99.90
2023-05-02T08:00:37.737Z,99.90
2023-05-02T08:03:31.757Z,99.90
2023-05-02T08:06:25.684Z,99.90
2023-05-02T08:09:19.549Z,99.90
2023-05-02T08:12:06.628Z,99.90
2023-05-02T08:15:00.583Z,99.90
2023-05-02T08:17:47.723Z,99.90
2023-05-02T08:20:41.612Z,99.90
2023-05-02T08:23:28.688Z,99.90
2023-05-02T08:26:22.620Z,99.90
2023-05-02T08:29:17.668Z,99.90
2023-05-02T08:32:05.714Z,99.90
2023-05-02T08:35:05.654Z,99.90
2023-05-02T08:37:52.907Z,99.90
2023-05-02T08:40:46.596Z,99.90
2023-05-02T08:43:33.925Z,99.90
2023-05-02T08:46:29.640Z,99.90
2023-05-02T08:49:18.088Z,99.90
2023-05-02T08:52:13.613Z,99.90
2023-05-02T08:55:02.369Z,99.90
2023-05-02T08:57:56.644Z,99.90
2023-05-02T09:00:53.713Z,99.90
2023-05-02T09:03:42.774Z,99.90
2023-05-02T09:06:36.735Z,99.90
2023-05-02T09:09:24.998Z,99.90
2023-05-02T09:12:18.661Z,99.90
2023-05-02T09:15:19.845Z,99.90
2023-05-02T09:18:14.720Z,99.90
2023-05-02T09:21:17.979Z,99.90
2023-05-02T09:24:31.834Z,99.90
2023-05-02T09:27:25.730Z,99.90
2023-05-02T09:30:26.742Z,99.90
2023-05-02T09:33:33.733Z,99.90
2023-05-02T09:36:21.734Z,99.90
2023-05-02T09:39:17.698Z,99.90
2023-05-02T09:42:04.833Z,99.60
2023-05-02T09:44:58.964Z,99.50
2023-05-02T09:47:53.927Z,98.70
2023-05-02T09:50:41.302Z,98.20
2023-05-02T09:53:35.821Z,98.30
2023-05-02T09:56:23.998Z,97.20
2023-05-02T09:59:22.855Z,97.30
2023-05-02T10:02:12.019Z,97.20
2023-05-02T10:05:07.722Z,96.50
2023-05-02T10:07:54.908Z,97.10
2023-05-02T10:10:55.763Z,97.40
2023-05-02T10:13:44.206Z,98.00
2023-05-02T10:16:39.762Z,95.50
2023-05-02T10:19:59.865Z,96.30
2023-05-02T10:22:49.636Z,96.00
2023-05-02T10:25:43.768Z,94.10
2023-05-02T10:28:37.752Z,93.20
2023-05-02T10:31:32.805Z,94.10
2023-05-02T10:34:20.431Z,94.60
2023-05-02T10:37:13.769Z,95.10
2023-05-02T10:40:21.887Z,94.50
2023-05-02T10:43:19.852Z,93.60
2023-05-02T10:46:42.862Z,93.10
2023-05-02T10:49:36.826Z,92.60
2023-05-02T10:52:40.840Z,93.40
2023-05-02T10:55:28.081Z,93.30
2023-05-02T10:58:28.857Z,92.90
2023-05-02T11:01:33.134Z,92.20
2023-05-02T11:04:20.260Z,91.60
2023-05-02T11:07:13.835Z,92.00
2023-05-02T11:10:22.153Z,91.40
2023-05-02T11:13:15.858Z,90.40
2023-05-02T11:16:03.143Z,90.10
2023-05-02T11:19:09.851Z,90.80
2023-05-02T11:22:25.874Z,90.90
2023-05-02T11:25:35.757Z,90.70
2023-05-02T11:28:48.852Z,91.40
2023-05-02T11:31:35.895Z,90.60
2023-05-02T11:34:29.956Z,91.40
2023-05-02T11:37:17.082Z,91.00
2023-05-02T11:40:20.900Z,89.90
2023-05-02T11:43:22.920Z,90.00
2023-05-02T11:46:11.713Z,88.60
2023-05-02T11:49:07.006Z,88.80
2023-05-02T11:51:56.179Z,87.30
2023-05-02T11:54:49.897Z,88.60
2023-05-02T11:57:38.190Z,89.10
2023-05-02T12:00:34.961Z,89.20
2023-05-02T12:03:33.029Z,88.40
2023-05-02T12:06:26.952Z,85.30
2023-05-02T12:09:17.868Z,85.50
2023-05-02T12:12:11.980Z,84.60
2023-05-02T12:15:10.006Z,84.60
2023-05-02T12:17:57.211Z,85.20
2023-05-02T12:20:51.978Z,86.00
2023-05-02T12:23:40.462Z,86.00
2023-05-02T12:26:37.104Z,86.40
2023-05-02T12:29:44.444Z,86.30
2023-05-02T12:32:39.989Z,86.40
2023-05-02T12:35:34.988Z,85.20
2023-05-02T12:38:22.962Z,86.40
2023-05-02T12:41:17.054Z,84.80
2023-05-02T12:44:05.306Z,84.50
2023-05-02T12:47:08.257Z,81.40
2023-05-02T12:49:57.768Z,81.30
2023-05-02T12:52:56.985Z,80.90
2023-05-02T12:55:44.657Z,81.00
2023-05-02T12:58:47.988Z,82.60
2023-05-02T13:01:36.011Z,78.90
2023-05-02T13:04:41.055Z,80.20
2023-05-02T13:07:35.031Z,80.00
2023-05-02T13:10:22.932Z,78.90
2023-05-02T13:13:17.051Z,78.30
2023-05-02T13:16:04.228Z,78.20
2023-05-02T13:18:58.153Z,77.50
2023-05-02T13:21:45.280Z,78.00
2023-05-02T13:24:39.058Z,76.40
2023-05-02T13:27:33.024Z,75.30
2023-05-02T13:30:27.064Z,75.30
2023-05-02T13:33:14.130Z,76.60
2023-05-02T13:36:08.039Z,76.00
2023-05-02T13:38:55.166Z,75.50
2023-05-02T13:41:49.050Z,74.80
2023-05-02T13:44:36.494Z,74.50
2023-05-02T13:47:31.107Z,75.30
2023-05-02T13:50:18.226Z,76.40
2023-05-02T13:53:12.092Z,76.30
2023-05-02T13:56:06.134Z,76.60
2023-05-02T13:58:53.496Z,74.20
2023-05-02T14:01:47.177Z,75.30
2023-05-02T14:04:34.464Z,75.20
2023-05-02T14:07:28.101Z,74.10
2023-05-02T14:10:22.115Z,73.80
2023-05-02T14:13:09.209Z,74.30
2023-05-02T14:16:04.158Z,74.90
2023-05-02T14:18:51.346Z,74.80
2023-05-02T14:21:45.137Z,75.10
2023-05-02T14:24:32.332Z,75.10
2023-05-02T14:27:26.145Z,75.00
2023-05-02T14:30:13.388Z,73.80
2023-05-02T14:33:07.177Z,73.70
2023-05-02T14:35:54.322Z,75.20
2023-05-02T14:38:48.123Z,75.40
2023-05-02T14:41:35.267Z,75.10
2023-05-02T14:44:29.186Z,76.00
2023-05-02T14:47:23.452Z,77.70
2023-05-02T14:50:10.929Z,77.50
2023-05-02T14:53:04.246Z,76.20
2023-05-02T14:55:58.149Z,76.20
2023-05-02T14:58:52.261Z,76.00
2023-05-02T15:01:39.414Z,76.20
2023-05-02T15:04:33.269Z,75.40
2023-05-02T15:07:20.639Z,76.10
2023-05-02T15:10:15.223Z,76.70
2023-05-02T15:13:10.234Z,75.70
2023-05-02T15:15:57.585Z,73.00
2023-05-02T15:18:52.222Z,73.50
2023-05-02T15:21:39.349Z,72.60
2023-05-02T15:24:33.237Z,73.60
2023-05-02T15:27:20.360Z,75.10
2023-05-02T15:30:16.640Z,75.50
2023-05-02T15:33:05.199Z,75.50
2023-05-02T15:36:01.253Z,75.40
2023-05-02T15:38:55.259Z,74.20
2023-05-02T15:41:42.599Z,73.70
2023-05-02T15:44:36.248Z,74.10
2023-05-02T15:47:23.427Z,74.90
2023-05-02T15:50:17.275Z,74.10
2023-05-02T15:53:04.428Z,72.40
2023-05-02T15:55:59.310Z,73.50
2023-05-02T15:58:46.553Z,72.30
2023-05-02T16:01:40.427Z,72.70
2023-05-02T16:04:28.706Z,71.80
2023-05-02T16:07:22.298Z,69.90
2023-05-02T16:10:16.349Z,71.10
2023-05-02T16:13:10.318Z,72.60
2023-05-02T16:15:57.659Z,71.20
2023-05-02T16:18:51.318Z,71.60
2023-05-02T16:21:50.309Z,72.70
2023-05-02T16:24:37.478Z,72.20
2023-05-02T16:27:31.344Z,73.30
2023-05-02T16:30:25.341Z,73.80
2023-05-02T16:33:12.608Z,74.60
2023-05-02T16:36:10.326Z,75.60
2023-05-02T16:38:57.474Z,77.30
2023-05-02T16:41:51.385Z,78.20
2023-05-02T16:44:38.521Z,79.50
2023-05-02T16:47:33.412Z,80.30
2023-05-02T16:50:20.607Z,80.80
2023-05-02T16:53:14.380Z,81.60
2023-05-02T16:56:01.744Z,81.90
2023-05-02T16:58:55.348Z,82.60
2023-05-02T17:01:42.534Z,83.20
2023-05-02T17:04:36.415Z,83.30
2023-05-02T17:07:30.410Z,83.60
2023-05-02T17:10:18.950Z,84.00
2023-05-02T17:13:26.409Z,84.70
2023-05-02T17:16:13.521Z,85.40
2023-05-02T17:19:07.701Z,87.00
2023-05-02T17:21:55.675Z,87.50
2023-05-02T17:24:49.376Z,87.90
2023-05-02T17:27:38.439Z,88.60
2023-05-02T17:30:35.569Z,88.60
2023-05-02T17:33:29.440Z,88.70
2023-05-02T17:36:16.739Z,89.80
2023-05-02T17:39:10.441Z,90.00
2023-05-02T17:41:57.578Z,90.40
2023-05-02T17:44:54.481Z,90.60
2023-05-02T17:47:41.634Z,90.90
2023-05-02T17:50:35.490Z,91.00
2023-05-02T17:53:22.631Z,91.50
2023-05-02T17:56:17.474Z,91.70
2023-05-02T17:59:05.073Z,92.10
2023-05-02T18:01:59.564Z,91.60
2023-05-02T18:04:53.502Z,91.80
2023-05-02T18:07:40.672Z,92.00
2023-05-02T18:10:35.535Z,92.00
2023-05-02T18:13:22.663Z,92.10
2023-05-02T18:16:16.592Z,92.30
2023-05-02T18:19:03.931Z,92.40
2023-05-02T18:21:57.564Z,92.50
2023-05-02T18:24:44.768Z,92.80
2023-05-02T18:27:38.528Z,92.90
2023-05-02T18:30:32.615Z,93.20
2023-05-02T18:33:19.831Z,93.50
2023-05-02T18:36:13.531Z,93.60
2023-05-02T18:39:00.835Z,93.80
2023-05-02T18:41:54.546Z,93.90
2023-05-02T18:44:41.690Z,93.90
2023-05-02T18:47:37.616Z,94.20
2023-05-02T18:50:26.240Z,94.40
2023-05-02T18:53:20.543Z,94.60
2023-05-02T18:56:14.549Z,94.70
2023-05-02T18:59:08.626Z,94.80
2023-05-02T19:01:58.073Z,95.10
2023-05-02T19:04:51.596Z,95.60
2023-05-02T19:07:45.614Z,95.80
2023-05-02T19:10:32.890Z,96.10
2023-05-02T19:13:26.612Z,96.30
2023-05-02T19:16:14.161Z,96.60
2023-05-02T19:19:08.648Z,97.10
2023-05-02T19:22:02.614Z,97.00
2023-05-02T19:24:57.659Z,97.20
2023-05-02T19:27:47.619Z,97.50
2023-05-02T19:30:41.652Z,97.70
2023-05-02T19:33:35.642Z,98.00
2023-05-02T19:36:24.672Z,98.30
2023-05-02T19:39:19.676Z,98.40
2023-05-02T19:42:06.850Z,98.50
2023-05-02T19:45:01.003Z,98.70
2023-05-02T19:47:48.435Z,98.80
2023-05-02T19:50:42.690Z,99.10
2023-05-02T19:53:30.964Z,99.20
2023-05-02T19:56:24.967Z,99.50
2023-05-02T19:59:12.114Z,99.70
2023-05-02T20:02:05.672Z,99.90
2023-05-02T20:04:59.682Z,99.90
2023-05-02T20:07:46.988Z,99.90
2023-05-02T20:10:41.812Z,99.90
2023-05-02T20:13:28.989Z,99.90
2023-05-02T20:16:22.754Z,99.90
2023-05-02T20:19:09.874Z,99.90
2023-05-02T20:22:03.802Z,99.90
2023-05-02T20:24:50.976Z,99.90
2023-05-02T20:27:44.724Z,99.90
2023-05-02T20:30:38.709Z,99.90
2023-05-02T20:33:33.467Z,99.90
2023-05-02T20:36:30.784Z,99.90
2023-05-02T20:39:20.814Z,99.90
2023-05-02T20:42:14.810Z,99.90
2023-05-02T20:45:04.081Z,99.90
2023-05-02T20:47:57.760Z,99.90
2023-05-02T20:50:54.809Z,99.90
2023-05-02T20:53:48.764Z,99.90
2023-05-02T20:56:42.758Z,99.90
2023-05-02T20:59:30.045Z,99.90
2023-05-02T21:02:23.774Z,99.90
2023-05-02T21:05:11.133Z,99.90
2023-05-02T21:08:04.828Z,99.90
2023-05-02T21:10:53.154Z,99.90
2023-05-02T21:13:46.775Z,99.90
2023-05-02T21:16:33.932Z,99.90
2023-05-02T21:19:27.783Z,99.90
2023-05-02T21:22:21.832Z,99.90
2023-05-02T21:25:09.583Z,99.90
2023-05-02T21:28:02.851Z,99.90
2023-05-02T21:30:50.049Z,99.90
2023-05-02T21:33:43.840Z,99.90
2023-05-02T21:36:31.412Z,99.90
2023-05-02T21:39:24.875Z,99.90
2023-05-02T21:42:12.116Z,99.90
2023-05-02T21:45:05.828Z,99.90
2023-05-02T21:47:53.122Z,99.90
2023-05-02T21:50:50.985Z,99.90
2023-05-02T21:53:44.913Z,99.90
2023-05-02T21:56:32.192Z,99.90
2023-05-02T21:59:25.874Z,99.90
2023-05-02T22:02:13.005Z,99.90
2023-05-02T22:05:07.882Z,99.90
2023-05-02T22:07:56.276Z,99.90
2023-05-02T22:10:50.904Z,99.90
2023-05-02T22:13:38.103Z,99.90
2023-05-02T22:16:31.977Z,99.90
2023-05-02T22:19:19.234Z,99.90
2023-05-02T22:22:12.914Z,99.90
2023-05-02T22:25:02.710Z,99.90
2023-05-02T22:27:56.929Z,99.90
2023-05-02T22:30:50.882Z,99.90
2023-05-02T22:33:37.960Z,99.90
2023-05-02T22:36:31.882Z,99.90
2023-05-02T22:39:19.078Z,99.90
2023-05-02T22:42:12.951Z,99.90
2023-05-02T22:45:00.201Z,99.90
2023-05-02T22:47:53.921Z,99.90
2023-05-02T22:50:49.896Z,99.90
2023-05-02T22:53:37.024Z,99.90
2023-05-02T22:56:30.961Z,99.90
2023-05-02T22:59:18.149Z,99.90
2023-05-02T23:02:11.929Z,99.90
2023-05-02T23:04:59.197Z,99.90
2023-05-02T23:07:52.957Z,99.90
2023-05-02T23:10:39.983Z,99.90
2023-05-02T23:13:33.962Z,99.90
2023-05-02T23:16:28.000Z,99.90
2023-05-02T23:19:15.523Z,99.90
2023-05-02T23:22:09.172Z,99.90
2023-05-02T23:25:03.009Z,99.90
2023-05-02T23:27:57.004Z,99.90
2023-05-02T23:30:44.158Z,99.90
2023-05-02T23:33:38.037Z,99.90
2023-05-02T23:36:25.192Z,99.90
2023-05-02T23:39:19.029Z,99.90
2023-05-02T23:42:06.858Z,99.90
2023-05-02T23:45:02.024Z,99.90
2023-05-02T23:47:56.046Z,99.90
2023-05-02T23:50:43.282Z,99.90
2023-05-02T23:53:37.025Z,99.90
2023-05-02T23:56:24.247Z,99.90
2023-05-02T23:59:18.058Z,99.90
